Washington, DC (20350)

3:40 PM EST on December 28, 2014 (GMT -0500)
Alexandria, VA | Change Station
CLOSE
Current Station
Personal Weather Station
Location: Alexandria, VA
Elevation: 33 ft
Nearby Weather Stations

Elev 33 ft 38.84 °N, 77.07 °W | Updated 2 seconds ago

Overcast
Overcast
55.6 °F
Feels Like 55.6 °F
N
0.0
Wind Variable Wind from North
Gusts 0.0 mph

Today
High -- | Low -- °F
--% Chance of Precip.
Yesterday
High -- | Low -- °F
Precip. -- in
7:25 AM 4:53 PM
Waxing Crescent, 51% visible
Pressure 29.97 in
Visibility 10.0 miles
Clouds Few 5000 ft
Overcast 10000 ft
Dew Point 11 °F
Humidity 17%
Rainfall 0.00 in
Snow Depth Not available.
UV 0 out of 12
Pollen .10 out of 12
Air Quality Not available.
Flu Activity Not available.
METAR KDCA 281952Z 00000KT 10SM -RA FEW050 OVC100 14/06 A2997

More Conditions Fewer Conditions

Pressure 29.97 in
Visibility 10.0 miles
Clouds Few 5000 ft
Overcast 10000 ft
Dew Point 11 °F
Humidity 17%
Rainfall 0.00 in
Snow Depth Not available.
UV 0 out of 12
Pollen .10 out of 12
Air Quality Not available.
Flu Activity Not available.
METAR KDCA 281952Z 00000KT 10SM -RA FEW050 OVC100 14/06 A2997

More Conditions Fewer Conditions

10-Day Weather Forecast

Almanac

Astronomy

Dec. 28, 2014 Rise Set
Actual Time
Civil Twilight
Nautical Twilight
Astronomical Twilight
Moon
Length of Visible Light
Length of Day
Tomorrow will be .
, % of the Moon is Illuminated

Today's Extremes

State Highs State Lows

Community

WunderPhotos

Upload Photos

1,781,414 photos uploaded!

WunderBlogs® & News

Nearby

Air Quality

  Air Quality AQ Index Pollutant
Not available.

Snow Depth

Station Depth Elevation

Earthquake Activity

City Distance Mag. Time & Date
Minimum magnitude displayed is 2.5.

Coastal Water Temperatures

Place Temperature

Nearby Weather Stations